createdAt,value
2018-04-26T00:01:44.976Z,13.85
2018-04-26T00:04:15.720Z,13.84
2018-04-26T00:06:46.517Z,13.86
2018-04-26T00:09:17.283Z,13.81
2018-04-26T00:11:48.059Z,13.83
2018-04-26T00:14:18.800Z,13.77
2018-04-26T00:16:49.559Z,13.71
2018-04-26T00:19:20.313Z,13.72
2018-04-26T00:21:51.109Z,13.72
2018-04-26T00:24:21.864Z,13.57
2018-04-26T00:26:52.685Z,13.67
2018-04-26T00:29:23.439Z,13.63
2018-04-26T00:31:54.276Z,13.60
2018-04-26T00:34:25.043Z,13.62
2018-04-26T00:36:55.816Z,13.60
2018-04-26T00:39:26.573Z,13.57
2018-04-26T00:41:57.411Z,13.50
2018-04-26T00:44:28.179Z,13.47
2018-04-26T00:46:58.936Z,13.46
2018-04-26T00:49:29.687Z,13.40
2018-04-26T00:52:00.475Z,13.39
2018-04-26T00:54:31.225Z,13.34
2018-04-26T00:57:02.011Z,13.25
2018-04-26T00:59:32.746Z,13.15
2018-04-26T01:02:03.566Z,13.03
2018-04-26T01:04:34.358Z,12.97
2018-04-26T01:07:05.156Z,12.92
2018-04-26T01:09:35.939Z,12.88
2018-04-26T01:12:06.724Z,12.78
2018-04-26T01:14:37.496Z,12.83
2018-04-26T01:17:08.293Z,12.91
2018-04-26T01:19:39.110Z,12.93
2018-04-26T01:22:09.899Z,12.87
2018-04-26T01:24:40.687Z,12.80
2018-04-26T01:27:11.466Z,12.76
2018-04-26T01:29:42.246Z,12.76
2018-04-26T01:32:13.040Z,12.71
2018-04-26T01:34:43.821Z,12.83
2018-04-26T01:37:26.856Z,12.85
2018-04-26T01:39:57.622Z,12.73
2018-04-26T01:42:28.401Z,12.59
2018-04-26T01:44:59.157Z,12.42
2018-04-26T01:47:29.948Z,12.41
2018-04-26T01:50:00.715Z,12.44
2018-04-26T01:52:31.504Z,12.51
2018-04-26T01:55:02.299Z,12.57
2018-04-26T01:57:33.077Z,12.62
2018-04-26T02:00:03.879Z,12.67
2018-04-26T02:02:34.663Z,12.74
2018-04-26T02:05:05.451Z,12.67
2018-04-26T02:07:36.218Z,12.60
2018-04-26T02:10:07.012Z,12.60
2018-04-26T02:12:37.791Z,12.57
2018-04-26T02:15:08.551Z,12.60
2018-04-26T02:17:39.329Z,12.65
2018-04-26T02:20:10.104Z,12.59
2018-04-26T02:22:40.895Z,12.51
2018-04-26T02:25:11.684Z,12.39
2018-04-26T02:27:42.472Z,12.29
2018-04-26T02:30:13.237Z,12.27
2018-04-26T02:32:44.023Z,12.17
2018-04-26T02:35:14.821Z,12.12
2018-04-26T02:37:45.602Z,12.18
2018-04-26T02:40:16.383Z,12.31
2018-04-26T02:42:47.168Z,12.41
2018-04-26T02:45:17.958Z,12.44
2018-04-26T02:47:48.743Z,12.44
2018-04-26T02:50:19.523Z,12.51
2018-04-26T02:52:50.330Z,12.55
2018-04-26T02:55:21.095Z,12.66
2018-04-26T02:57:51.892Z,12.64
2018-04-26T03:00:22.656Z,12.71
2018-04-26T03:02:53.439Z,12.69
2018-04-26T03:05:24.216Z,12.65
2018-04-26T03:07:55.016Z,12.68
2018-04-26T03:10:25.792Z,12.67
2018-04-26T03:12:56.591Z,12.72
2018-04-26T03:15:27.366Z,12.71
2018-04-26T03:17:58.136Z,12.71
2018-04-26T03:20:28.932Z,12.71
2018-04-26T03:22:59.707Z,12.72
2018-04-26T03:25:30.464Z,12.73
2018-04-26T03:28:01.241Z,12.73
2018-04-26T03:30:32.005Z,12.72
2018-04-26T03:33:02.789Z,12.74
2018-04-26T03:35:33.573Z,12.70
2018-04-26T03:38:04.368Z,12.71
2018-04-26T03:40:35.148Z,12.75
2018-04-26T03:43:05.932Z,12.70
2018-04-26T03:45:36.720Z,12.72
2018-04-26T03:48:07.508Z,12.72
2018-04-26T03:50:38.291Z,12.67
2018-04-26T03:53:09.096Z,12.65
2018-04-26T03:55:39.862Z,12.65
2018-04-26T03:58:10.718Z,12.59
2018-04-26T04:00:53.799Z,12.60
2018-04-26T04:03:36.984Z,12.56
2018-04-26T04:06:13.895Z,12.50
2018-04-26T04:08:44.680Z,12.34
2018-04-26T04:11:15.459Z,12.27
2018-04-26T04:13:46.303Z,12.35
2018-04-26T04:16:17.047Z,12.42
2018-04-26T04:18:47.841Z,12.40
2018-04-26T04:21:18.641Z,12.47
2018-04-26T04:23:49.496Z,12.46
2018-04-26T04:26:20.281Z,12.49
2018-04-26T04:28:51.097Z,12.51
2018-04-26T04:31:21.863Z,12.43
2018-04-26T04:33:52.669Z,12.48
2018-04-26T04:36:23.436Z,12.47
2018-04-26T04:38:54.213Z,12.46
2018-04-26T04:41:24.974Z,12.38
2018-04-26T04:43:55.760Z,12.37
2018-04-26T04:46:26.568Z,12.32
2018-04-26T04:48:57.353Z,12.34
2018-04-26T04:51:28.128Z,12.23
2018-04-26T04:53:58.912Z,12.00
2018-04-26T04:56:29.710Z,11.79
2018-04-26T04:59:00.481Z,11.79
2018-04-26T05:01:31.282Z,11.74
2018-04-26T05:04:02.064Z,11.71
2018-04-26T05:06:32.833Z,11.53
2018-04-26T05:09:03.659Z,11.39
2018-04-26T05:11:34.436Z,11.22
2018-04-26T05:14:05.206Z,11.03
2018-04-26T05:16:35.964Z,10.94
2018-04-26T05:19:06.732Z,10.92
2018-04-26T05:21:37.508Z,10.82
2018-04-26T05:24:08.308Z,10.78
2018-04-26T05:26:39.080Z,10.86
2018-04-26T05:29:09.949Z,10.91
2018-04-26T05:31:40.717Z,10.93
2018-04-26T05:34:11.503Z,11.04
2018-04-26T05:36:42.282Z,11.12
2018-04-26T05:39:13.080Z,11.18
2018-04-26T05:41:43.913Z,11.17
2018-04-26T05:44:14.743Z,11.05
2018-04-26T05:46:45.535Z,10.99
2018-04-26T05:49:16.316Z,10.84
2018-04-26T05:51:47.180Z,10.83
2018-04-26T05:54:17.982Z,10.63
2018-04-26T05:56:48.752Z,10.40
2018-04-26T05:59:19.551Z,10.32
2018-04-26T06:01:50.343Z,10.22
2018-04-26T06:04:21.178Z,10.15
2018-04-26T06:06:51.988Z,10.11
2018-04-26T06:09:22.813Z,10.16
2018-04-26T06:11:53.608Z,10.07
2018-04-26T06:14:24.466Z,10.10
2018-04-26T06:16:55.295Z,10.18
2018-04-26T06:19:26.109Z,10.42
2018-04-26T06:21:56.867Z,10.69
2018-04-26T06:24:27.713Z,10.90
2018-04-26T06:26:58.486Z,11.33
2018-04-26T06:29:29.304Z,11.73
2018-04-26T06:32:00.078Z,12.05
2018-04-26T06:34:30.886Z,12.43
2018-04-26T06:37:01.709Z,13.19
2018-04-26T06:39:32.512Z,14.49
2018-04-26T06:42:03.320Z,14.21
2018-04-26T06:44:34.107Z,13.98
2018-04-26T06:47:04.891Z,14.60
2018-04-26T06:49:35.683Z,15.33
2018-04-26T06:52:06.476Z,14.31
2018-04-26T06:54:37.254Z,13.69
2018-04-26T06:57:08.025Z,13.43
2018-04-26T06:59:38.833Z,13.39
2018-04-26T07:02:09.585Z,13.42
2018-04-26T07:04:40.420Z,13.48
2018-04-26T07:07:11.217Z,13.67
2018-04-26T07:09:42.013Z,13.73
2018-04-26T07:12:12.853Z,13.76
2018-04-26T07:14:43.612Z,14.54
2018-04-26T07:17:14.372Z,15.91
2018-04-26T07:19:45.171Z,15.61
2018-04-26T07:22:15.947Z,15.09
2018-04-26T07:24:46.769Z,15.02
2018-04-26T07:27:17.538Z,16.01
2018-04-26T07:29:48.320Z,16.52
2018-04-26T07:32:19.097Z,16.23
2018-04-26T07:34:49.987Z,14.85
2018-04-26T07:37:20.663Z,15.04
2018-04-26T07:39:51.496Z,15.13
2018-04-26T07:42:22.264Z,15.55
2018-04-26T07:44:53.159Z,15.22
2018-04-26T07:47:23.919Z,15.06
2018-04-26T07:49:54.750Z,15.26
2018-04-26T07:52:25.523Z,15.91
2018-04-26T07:54:56.352Z,17.43
2018-04-26T07:57:27.197Z,17.79
2018-04-26T07:59:58.213Z,17.36
2018-04-26T08:02:29.003Z,16.85
2018-04-26T08:04:59.911Z,16.83
2018-04-26T08:07:30.697Z,16.30
2018-04-26T08:10:01.491Z,15.88
2018-04-26T08:12:32.303Z,14.98
2018-04-26T08:15:03.128Z,14.55
2018-04-26T08:17:33.945Z,14.24
2018-04-26T08:20:04.778Z,14.63
2018-04-26T08:22:35.608Z,15.16
2018-04-26T08:25:07.352Z,15.97
2018-04-26T08:27:38.175Z,17.16
2018-04-26T08:30:08.995Z,17.74
2018-04-26T08:32:39.802Z,17.18
2018-04-26T08:35:10.656Z,17.78
2018-04-26T08:37:41.459Z,18.35
2018-04-26T08:40:12.254Z,17.90
2018-04-26T08:42:43.183Z,18.36
2018-04-26T08:45:14.095Z,18.46
2018-04-26T08:47:44.878Z,18.87
2018-04-26T08:50:15.648Z,20.30
2018-04-26T08:52:46.460Z,21.33
2018-04-26T08:55:17.257Z,20.85
2018-04-26T08:57:48.027Z,20.87
2018-04-26T09:00:18.825Z,18.86
2018-04-26T09:02:49.602Z,19.12
2018-04-26T09:05:20.411Z,19.68
2018-04-26T09:07:51.171Z,20.43
2018-04-26T09:10:21.976Z,19.98
2018-04-26T09:12:52.807Z,20.04
2018-04-26T09:15:23.599Z,19.04
2018-04-26T09:17:55.435Z,19.59
2018-04-26T09:20:26.249Z,19.61
2018-04-26T09:22:57.042Z,19.20
2018-04-26T09:25:27.883Z,19.07
2018-04-26T09:27:58.642Z,18.28
2018-04-26T09:30:29.440Z,19.32
2018-04-26T09:33:00.207Z,19.49
2018-04-26T09:35:30.995Z,19.26
2018-04-26T09:38:01.784Z,20.09
2018-04-26T09:40:32.600Z,19.87
2018-04-26T09:43:03.394Z,20.53
2018-04-26T09:45:34.199Z,20.85
2018-04-26T09:48:04.955Z,20.95
2018-04-26T09:50:35.743Z,20.86
2018-04-26T09:53:06.503Z,21.19
2018-04-26T09:55:37.339Z,21.69
2018-04-26T09:58:08.119Z,21.69
2018-04-26T10:00:41.839Z,22.11
2018-04-26T10:03:12.596Z,20.62
2018-04-26T10:08:46.975Z,18.47
2018-04-26T10:11:17.726Z,19.04
2018-04-26T10:13:48.491Z,19.13
2018-04-26T10:16:19.280Z,19.34
2018-04-26T10:18:50.097Z,19.72
2018-04-26T10:21:20.871Z,20.68
2018-04-26T10:23:51.646Z,19.80
2018-04-26T10:26:22.432Z,19.01
2018-04-26T10:28:53.243Z,19.67
2018-04-26T10:31:24.031Z,19.95
2018-04-26T10:33:54.815Z,19.64
2018-04-26T10:36:25.607Z,19.81
2018-04-26T10:38:56.401Z,20.34
2018-04-26T10:41:27.228Z,20.99
2018-04-26T10:43:58.019Z,21.67
2018-04-26T10:46:28.841Z,21.23
2018-04-26T10:48:59.619Z,20.05
2018-04-26T10:51:30.410Z,19.98
2018-04-26T10:54:01.202Z,19.75
2018-04-26T10:56:31.992Z,19.06
2018-04-26T10:59:02.760Z,18.75
2018-04-26T11:01:33.551Z,18.16
2018-04-26T11:04:04.340Z,18.78
2018-04-26T11:06:35.139Z,19.01
2018-04-26T11:09:05.996Z,18.73
2018-04-26T11:11:36.819Z,18.72
2018-04-26T11:14:07.532Z,18.29
2018-04-26T11:16:38.347Z,18.37
2018-04-26T11:19:09.147Z,18.48
2018-04-26T11:21:39.927Z,19.21
2018-04-26T11:24:10.700Z,19.56
2018-04-26T11:26:41.512Z,19.45
2018-04-26T11:29:12.312Z,19.25
2018-04-26T11:31:43.077Z,19.75
2018-04-26T11:34:13.842Z,19.53
2018-04-26T11:36:44.817Z,19.70
2018-04-26T11:39:15.591Z,19.63
2018-04-26T11:41:46.681Z,19.76
2018-04-26T11:44:17.468Z,20.09
2018-04-26T11:46:48.357Z,20.18
2018-04-26T11:49:19.100Z,20.36
2018-04-26T11:51:49.936Z,19.75
2018-04-26T11:54:20.708Z,21.01
2018-04-26T11:56:51.532Z,20.66
2018-04-26T11:59:22.306Z,20.24
2018-04-26T12:01:53.088Z,19.18
2018-04-26T12:04:23.895Z,18.81
2018-04-26T12:06:54.675Z,19.69
2018-04-26T12:09:25.538Z,19.58
2018-04-26T12:11:56.325Z,19.05
2018-04-26T12:14:27.088Z,19.16
2018-04-26T12:16:57.899Z,19.07
2018-04-26T12:19:28.679Z,19.73
2018-04-26T12:21:59.477Z,19.56
2018-04-26T12:24:30.264Z,19.56
2018-04-26T12:27:01.096Z,19.73
2018-04-26T12:29:31.872Z,20.16
2018-04-26T12:32:02.739Z,19.01
2018-04-26T12:34:33.515Z,19.55
2018-04-26T12:37:04.293Z,19.71
2018-04-26T12:39:35.076Z,19.88
2018-04-26T12:42:05.928Z,20.37
2018-04-26T12:44:37.537Z,20.50
2018-04-26T12:47:08.348Z,20.20
2018-04-26T12:49:39.222Z,19.87
2018-04-26T12:52:10.044Z,19.08
2018-04-26T12:54:41.477Z,19.80
2018-04-26T12:57:12.460Z,20.27
2018-04-26T12:59:43.260Z,20.16
2018-04-26T13:02:14.060Z,20.82
2018-04-26T13:04:44.813Z,19.67
2018-04-26T13:07:15.635Z,20.15
2018-04-26T13:09:46.401Z,18.62
2018-04-26T13:12:17.288Z,17.97
2018-04-26T13:14:49.137Z,17.47
2018-04-26T13:17:21.051Z,17.62
2018-04-26T13:19:51.831Z,17.30
2018-04-26T13:22:22.612Z,16.76
2018-04-26T13:24:53.393Z,16.68
2018-04-26T13:27:24.241Z,16.65
2018-04-26T13:29:55.029Z,18.00
2018-04-26T13:32:25.804Z,20.76
2018-04-26T13:34:56.559Z,22.38
2018-04-26T13:37:27.415Z,22.87
2018-04-26T13:39:58.199Z,22.15
2018-04-26T13:42:29.007Z,23.27
2018-04-26T13:44:59.778Z,23.57
2018-04-26T13:47:30.584Z,23.66
2018-04-26T13:50:01.498Z,21.94
2018-04-26T13:52:32.376Z,20.38
2018-04-26T13:55:04.271Z,18.16
2018-04-26T13:57:35.107Z,17.65
2018-04-26T14:00:05.914Z,17.34
2018-04-26T14:02:36.709Z,19.33
2018-04-26T14:05:07.504Z,19.13
2018-04-26T14:07:38.296Z,20.77
2018-04-26T14:10:09.092Z,22.60
2018-04-26T14:12:39.898Z,20.59
2018-04-26T14:15:10.683Z,22.30
2018-04-26T14:17:41.495Z,22.26
2018-04-26T14:20:12.249Z,21.03
2018-04-26T14:22:43.045Z,21.74
2018-04-26T14:25:13.842Z,19.89
2018-04-26T14:27:44.673Z,20.36
2018-04-26T14:30:15.455Z,19.19
2018-04-26T14:32:46.284Z,20.12
2018-04-26T14:35:17.039Z,21.42
2018-04-26T14:37:47.812Z,21.54
2018-04-26T14:40:18.599Z,21.01
2018-04-26T14:42:49.374Z,20.25
2018-04-26T14:45:20.192Z,20.60
2018-04-26T14:47:50.979Z,20.50
2018-04-26T14:50:21.849Z,19.81
2018-04-26T14:52:52.693Z,21.46
2018-04-26T14:55:23.507Z,21.44
2018-04-26T14:57:54.294Z,21.51
2018-04-26T15:00:25.076Z,21.33
2018-04-26T15:02:55.860Z,21.34
2018-04-26T15:05:26.694Z,22.24
2018-04-26T15:07:57.593Z,21.37
2018-04-26T15:10:28.347Z,20.85
2018-04-26T15:12:59.108Z,20.72
2018-04-26T15:15:29.960Z,21.74
2018-04-26T15:18:00.688Z,21.56
2018-04-26T15:20:31.483Z,21.49
2018-04-26T15:23:02.279Z,21.27
2018-04-26T15:25:33.049Z,21.74
2018-04-26T15:28:03.848Z,22.28
2018-04-26T15:30:34.651Z,21.32
2018-04-26T15:33:05.462Z,20.38
2018-04-26T15:35:36.288Z,19.95
2018-04-26T15:38:07.151Z,19.13
2018-04-26T15:40:37.934Z,18.43
2018-04-26T15:43:08.739Z,18.02
2018-04-26T15:45:39.527Z,18.28
2018-04-26T15:48:10.308Z,17.39
2018-04-26T15:50:56.027Z,18.54
2018-04-26T15:53:39.205Z,18.87
2018-04-26T15:59:31.432Z,19.51
2018-04-26T16:05:26.915Z,19.23
2018-04-26T16:11:28.401Z,18.71
2018-04-26T16:14:05.339Z,18.54
2018-04-26T16:20:17.319Z,16.93
2018-04-26T16:23:06.732Z,16.34
2018-04-26T16:25:49.794Z,16.05
2018-04-26T16:28:39.236Z,15.99
2018-04-26T16:31:28.670Z,16.06
2018-04-26T16:34:11.779Z,16.08
2018-04-26T16:36:55.023Z,15.85
2018-04-26T16:39:25.780Z,16.29
2018-04-26T16:41:56.579Z,16.13
2018-04-26T16:44:27.434Z,15.92
2018-04-26T16:46:58.107Z,15.98
2018-04-26T16:49:28.883Z,15.98
2018-04-26T16:51:59.660Z,15.80
2018-04-26T16:54:30.431Z,15.47
2018-04-26T16:57:01.208Z,15.36
2018-04-26T16:59:31.960Z,15.21
2018-04-26T17:02:02.761Z,15.20
2018-04-26T17:04:33.595Z,14.88
2018-04-26T17:07:04.459Z,15.00
2018-04-26T17:09:35.107Z,14.85
2018-04-26T17:12:05.908Z,14.87
2018-04-26T17:14:36.672Z,14.73
2018-04-26T17:17:07.515Z,14.62
2018-04-26T17:19:38.223Z,14.55
2018-04-26T17:22:09.027Z,14.58
2018-04-26T17:24:39.807Z,14.48
2018-04-26T17:27:10.637Z,14.36
2018-04-26T17:29:41.415Z,14.30
2018-04-26T17:32:12.235Z,14.13
2018-04-26T17:34:43.026Z,14.05
2018-04-26T17:37:13.831Z,14.04
2018-04-26T17:39:44.627Z,14.00
2018-04-26T17:42:15.440Z,13.81
2018-04-26T17:44:46.191Z,13.70
2018-04-26T17:47:17.012Z,13.56
2018-04-26T17:49:47.777Z,13.49
2018-04-26T17:52:18.555Z,13.44
2018-04-26T17:54:49.312Z,13.56
2018-04-26T17:57:20.105Z,13.40
2018-04-26T17:59:50.864Z,13.36
2018-04-26T18:02:21.647Z,13.22
2018-04-26T18:04:52.412Z,13.05
2018-04-26T18:07:23.183Z,12.99
2018-04-26T18:09:53.964Z,12.88
2018-04-26T18:12:24.743Z,12.84
2018-04-26T18:14:55.503Z,12.66
2018-04-26T18:17:26.301Z,12.56
2018-04-26T18:20:01.043Z,12.50
2018-04-26T18:22:27.936Z,12.40
2018-04-26T18:24:58.720Z,12.32
2018-04-26T18:27:29.600Z,12.15
2018-04-26T18:30:00.361Z,11.97
2018-04-26T18:32:31.139Z,11.80
2018-04-26T18:35:01.955Z,11.79
2018-04-26T18:37:32.760Z,11.68
2018-04-26T18:40:03.605Z,11.58
2018-04-26T18:42:34.448Z,11.51
2018-04-26T18:45:05.276Z,11.51
2018-04-26T18:47:42.984Z,11.53
2018-04-26T18:50:14.800Z,11.34
2018-04-26T18:52:45.600Z,11.12
2018-04-26T18:55:16.373Z,11.21
2018-04-26T18:57:47.209Z,11.14
2018-04-26T19:00:17.988Z,11.06
2018-04-26T19:02:48.813Z,10.99
2018-04-26T19:05:19.575Z,10.92
2018-04-26T19:07:50.364Z,10.77
2018-04-26T19:10:21.131Z,10.71
2018-04-26T19:12:51.991Z,10.59
2018-04-26T19:15:22.759Z,10.42
2018-04-26T19:17:53.616Z,10.35
2018-04-26T19:20:24.492Z,10.26
2018-04-26T19:22:55.341Z,10.15
2018-04-26T19:25:26.156Z,10.04
2018-04-26T19:27:57.008Z,10.05
2018-04-26T19:30:28.051Z,10.08
2018-04-26T19:32:59.127Z,10.20
2018-04-26T19:35:30.363Z,10.12
2018-04-26T19:38:03.627Z,10.13
2018-04-26T19:40:35.172Z,9.92
2018-04-26T19:43:06.206Z,9.63
2018-04-26T19:45:37.009Z,9.48
2018-04-26T19:48:07.955Z,9.45
2018-04-26T19:50:38.836Z,9.49
2018-04-26T19:53:09.693Z,9.44
2018-04-26T19:55:40.535Z,9.25
2018-04-26T19:58:11.344Z,9.11
2018-04-26T20:00:42.127Z,9.00
2018-04-26T20:03:13.054Z,8.99
2018-04-26T20:05:43.859Z,8.80
2018-04-26T20:08:14.707Z,8.85
2018-04-26T20:10:45.559Z,8.71
2018-04-26T20:13:16.352Z,8.87
2018-04-26T20:15:47.132Z,8.75
2018-04-26T20:18:17.959Z,8.53
2018-04-26T20:20:48.875Z,8.34
2018-04-26T20:23:19.647Z,8.21
2018-04-26T20:25:50.409Z,8.11
2018-04-26T20:30:51.912Z,7.93
2018-04-26T20:33:22.738Z,8.00
2018-04-26T20:35:53.516Z,8.00
2018-04-26T20:38:24.467Z,8.08
2018-04-26T20:40:55.256Z,8.01
2018-04-26T20:43:26.075Z,8.11
2018-04-26T20:45:56.943Z,8.07
2018-04-26T20:48:39.890Z,7.98
2018-04-26T20:51:10.730Z,7.84
2018-04-26T20:53:41.512Z,7.68
2018-04-26T20:56:12.850Z,7.56
2018-04-26T20:58:43.637Z,7.49
2018-04-26T21:01:14.419Z,7.48
2018-04-26T21:03:45.244Z,7.48
2018-04-26T21:06:16.023Z,7.40
2018-04-26T21:08:46.843Z,7.42
2018-04-26T21:11:17.666Z,7.34
2018-04-26T21:13:48.467Z,7.31
2018-04-26T21:16:19.239Z,7.05
2018-04-26T21:18:50.024Z,7.17
2018-04-26T21:21:20.805Z,7.15
2018-04-26T21:23:51.613Z,7.07
2018-04-26T21:26:22.377Z,7.16
2018-04-26T21:28:53.169Z,7.22
2018-04-26T21:31:23.928Z,7.28
2018-04-26T21:33:54.717Z,7.36
2018-04-26T21:36:25.485Z,7.49
2018-04-26T21:38:56.308Z,7.73
2018-04-26T21:41:27.084Z,7.70
2018-04-26T21:43:57.853Z,7.65
2018-04-26T21:46:28.615Z,7.61
2018-04-26T21:48:59.430Z,7.57
2018-04-26T21:51:36.268Z,7.47
2018-04-26T21:54:13.108Z,7.45
2018-04-26T21:56:50.093Z,7.44
2018-04-26T21:59:26.976Z,7.43
2018-04-26T22:02:03.961Z,7.38
2018-04-26T22:07:42.349Z,7.32
2018-04-26T22:10:13.163Z,7.37
2018-04-26T22:12:43.935Z,7.44
2018-04-26T22:15:14.729Z,7.51
2018-04-26T22:17:45.511Z,7.50
2018-04-26T22:20:16.325Z,7.45
2018-04-26T22:22:47.105Z,7.43
2018-04-26T22:25:17.924Z,7.45
2018-04-26T22:27:48.693Z,7.58
2018-04-26T22:30:19.483Z,7.59
2018-04-26T22:32:50.239Z,7.58
2018-04-26T22:35:21.069Z,7.58
2018-04-26T22:37:51.883Z,7.46
2018-04-26T22:40:22.681Z,7.41
2018-04-26T22:42:53.447Z,7.26
2018-04-26T22:45:24.263Z,7.22
2018-04-26T22:47:55.052Z,7.15
2018-04-26T22:50:25.839Z,7.17
2018-04-26T22:52:56.624Z,7.18
2018-04-26T22:55:27.436Z,7.11
2018-04-26T22:57:58.196Z,7.15
2018-04-26T23:00:29.015Z,7.11
2018-04-26T23:02:59.796Z,7.09
2018-04-26T23:05:30.682Z,7.15
2018-04-26T23:08:01.456Z,7.20
2018-04-26T23:10:32.277Z,7.28
2018-04-26T23:13:03.059Z,7.42
2018-04-26T23:15:33.850Z,7.54
2018-04-26T23:18:04.639Z,7.64
2018-04-26T23:20:35.426Z,7.70
2018-04-26T23:23:06.197Z,7.73
2018-04-26T23:25:37.005Z,7.69
2018-04-26T23:28:07.767Z,7.56
2018-04-26T23:30:38.567Z,7.39
2018-04-26T23:33:09.380Z,7.34
2018-04-26T23:35:40.196Z,7.26
2018-04-26T23:38:10.969Z,7.27
2018-04-26T23:40:41.772Z,7.28
2018-04-26T23:43:12.527Z,7.20
2018-04-26T23:45:43.344Z,7.15
2018-04-26T23:48:14.176Z,7.08
2018-04-26T23:50:44.982Z,7.00
2018-04-26T23:53:15.735Z,6.97
2018-04-26T23:55:46.547Z,6.99
2018-04-26T23:58:17.323Z,6.93
